Terminal Aerodrome Forecast
Issued by NWS

Home | Current Version | Previous Version | Text Only | Print | Product List | Glossary On
Versions: 1 2 3 4 5 6 7 8 9 10 11 12 13 14 15 16
117
FTUS43 KUNR 202320
TAFGCC
TAF
KGCC 202320Z 2100/2124 36005KT 6SM -SN SCT015 OVC040
      TEMPO 2101/2105 2SM -SN BKN015 OVC035
     FM210900 34011KT P6SM SCT025 BKN080=

USA.gov is the U.S. government's official web portal to all federal, state and local government web resources and services.